Time;durP1;ratioP1;P1;durP2;ratioP2;P2;SDS_P1;SDS_P2;PMS_P1;PMS_P2;Temp;Humidity;BMP_temperature;BMP_pressure;BME280_temperature;BME280_humidity;BME280_pressure;Samples;Min_cycle;Max_cycle;Signal;HPM_P1;HPM_P2
2023/12/31 00:01:52;;;;;;;4.90;2.40;;;;;;;;;;5040931;28;20557;-51
2023/12/31 00:04:18;;;;;;;4.93;2.03;;;;;;;;;;5043720;28;20563;-53
2023/12/31 00:06:44;;;;;;;5.07;2.40;;;;;;;;;;5046169;28;20242;-52
2023/12/31 00:09:10;;;;;;;6.07;2.07;;;;;;;;;;5045863;28;20192;-51
2023/12/31 00:11:36;;;;;;;4.80;2.07;;;;;;;;;;5045935;28;20207;-52
2023/12/31 00:14:02;;;;;;;4.60;1.90;;;;;;;;;;5043144;28;20247;-50
2023/12/31 00:16:28;;;;;;;2.60;1.73;;;;;;;;;;5042210;28;20724;-52
2023/12/31 00:18:56;;;;;;;2.57;1.80;;;;;;;;;;5049252;28;20219;-53
2023/12/31 00:21:22;;;;;;;3.03;2.10;;;;;;;;;;5043683;28;20317;-54
2023/12/31 00:23:48;;;;;;;4.93;2.37;;;;;;;;;;5044022;28;20207;-53
2023/12/31 00:26:14;;;;;;;4.80;2.03;;;;;;;;;;5044284;28;20287;-52
2023/12/31 00:28:40;;;;;;;3.70;2.00;;;;;;;;;;5050873;28;20275;-52
2023/12/31 00:31:06;;;;;;;3.57;1.90;;;;;;;;;;5045757;28;20185;-52
2023/12/31 00:33:32;;;;;;;4.50;2.40;;;;;;;;;;5062468;28;20311;-52
2023/12/31 00:36:00;;;;;;;4.03;2.20;;;;;;;;;;5062282;28;20282;-52
2023/12/31 00:38:26;;;;;;;4.33;2.13;;;;;;;;;;5060729;28;20214;-52
2023/12/31 00:40:53;;;;;;;7.17;2.43;;;;;;;;;;5063381;28;20231;-55
2023/12/31 00:43:19;;;;;;;4.43;2.23;;;;;;;;;;5048425;28;20196;-54
2023/12/31 00:45:44;;;;;;;5.70;2.10;;;;;;;;;;5051967;28;20204;-54
2023/12/31 00:48:11;;;;;;;4.97;2.00;;;;;;;;;;5051684;28;20249;-55
2023/12/31 00:50:37;;;;;;;3.90;1.93;;;;;;;;;;5052450;28;20220;-54
2023/12/31 00:53:04;;;;;;;4.60;2.20;;;;;;;;;;5052328;28;20188;-55
2023/12/31 00:55:30;;;;;;;4.03;1.80;;;;;;;;;;5052527;28;20230;-55
2023/12/31 00:57:56;;;;;;;2.60;1.87;;;;;;;;;;5052294;28;20629;-54
2023/12/31 01:00:22;;;;;;;5.93;2.20;;;;;;;;;;5051820;28;20235;-54
2023/12/31 01:02:48;;;;;;;6.27;2.27;;;;;;;;;;5051865;28;20234;-54
2023/12/31 01:05:14;;;;;;;5.73;1.97;;;;;;;;;;5051891;28;20230;-54
2023/12/31 01:07:40;;;;;;;3.67;1.67;;;;;;;;;;5052159;28;20204;-55
2023/12/31 01:10:08;;;;;;;3.87;2.00;;;;;;;;;;5051976;28;20227;-54
2023/12/31 01:12:34;;;;;;;4.80;1.80;;;;;;;;;;5051911;28;20204;-54
2023/12/31 01:15:00;;;;;;;3.23;1.87;;;;;;;;;;5052035;28;20666;-54
2023/12/31 01:17:26;;;;;;;5.83;1.93;;;;;;;;;;5071304;28;20357;-54
2023/12/31 01:19:52;;;;;;;4.83;2.23;;;;;;;;;;5071672;28;20223;-54
2023/12/31 01:22:18;;;;;;;4.40;1.90;;;;;;;;;;5071810;28;20565;-55
2023/12/31 01:24:44;;;;;;;4.03;1.70;;;;;;;;;;5071754;28;20199;-54
2023/12/31 01:27:11;;;;;;;4.37;1.70;;;;;;;;;;5069754;28;20302;-53
2023/12/31 01:29:38;;;;;;;3.13;2.00;;;;;;;;;;5070138;28;20188;-52
2023/12/31 01:32:04;;;;;;;2.93;1.80;;;;;;;;;;5071711;28;20257;-52
2023/12/31 01:34:30;;;;;;;4.63;2.20;;;;;;;;;;5072132;28;20192;-53
2023/12/31 01:36:56;;;;;;;3.77;2.10;;;;;;;;;;5071906;28;20291;-52
2023/12/31 01:39:22;;;;;;;4.93;2.20;;;;;;;;;;5071877;28;20245;-52
2023/12/31 01:41:48;;;;;;;5.73;2.83;;;;;;;;;;5071841;28;20204;-53
2023/12/31 01:44:16;;;;;;;6.33;2.00;;;;;;;;;;5072034;28;20200;-52
2023/12/31 01:46:42;;;;;;;3.43;1.90;;;;;;;;;;5071679;28;20242;-53
2023/12/31 01:49:09;;;;;;;3.73;2.07;;;;;;;;;;5071702;28;20203;-53
2023/12/31 01:51:35;;;;;;;4.50;1.97;;;;;;;;;;5071801;28;20215;-53
2023/12/31 01:54:04;;;;;;;3.07;2.10;;;;;;;;;;5071774;28;20199;-53
2023/12/31 01:56:31;;;;;;;10.33;2.03;;;;;;;;;;5071791;28;20680;-52
2023/12/31 01:58:57;;;;;;;6.30;2.10;;;;;;;;;;5071662;28;20242;-52
2023/12/31 02:01:25;;;;;;;4.53;2.30;;;;;;;;;;5071577;28;20238;-52
2023/12/31 02:03:51;;;;;;;4.33;2.07;;;;;;;;;;5071520;28;20238;-52
2023/12/31 02:06:17;;;;;;;4.37;2.47;;;;;;;;;;5071574;28;20227;-52
2023/12/31 02:08:43;;;;;;;3.97;1.97;;;;;;;;;;5071671;28;20195;-52
2023/12/31 02:11:09;;;;;;;3.70;2.30;;;;;;;;;;5071488;28;20654;-53
2023/12/31 02:13:35;;;;;;;4.23;2.23;;;;;;;;;;5071557;28;20263;-53
2023/12/31 02:16:01;;;;;;;6.27;2.00;;;;;;;;;;5074630;28;20230;-53
2023/12/31 02:18:29;;;;;;;4.40;2.27;;;;;;;;;;5075582;28;20697;-53
2023/12/31 02:20:55;;;;;;;4.30;1.90;;;;;;;;;;5075411;28;20227;-53
2023/12/31 02:23:21;;;;;;;2.10;1.50;;;;;;;;;;5075585;28;20203;-53
2023/12/31 02:25:48;;;;;;;4.27;2.03;;;;;;;;;;5075516;28;20278;-53
2023/12/31 02:28:15;;;;;;;2.80;2.03;;;;;;;;;;5075363;28;20196;-53
2023/12/31 02:30:41;;;;;;;5.40;2.00;;;;;;;;;;5075444;28;20280;-53
2023/12/31 02:33:07;;;;;;;3.57;1.87;;;;;;;;;;5075165;28;20247;-53
2023/12/31 02:35:33;;;;;;;3.20;1.70;;;;;;;;;;5075295;28;20207;-53
2023/12/31 02:38:00;;;;;;;5.03;1.90;;;;;;;;;;5075200;28;20564;-53
2023/12/31 02:40:26;;;;;;;2.10;1.77;;;;;;;;;;5075041;28;20228;-53
2023/12/31 02:42:52;;;;;;;6.53;1.90;;;;;;;;;;5073321;28;20306;-53
2023/12/31 02:45:19;;;;;;;4.73;1.93;;;;;;;;;;5071357;28;20199;-53
2023/12/31 02:47:46;;;;;;;4.27;1.87;;;;;;;;;;5073144;28;20254;-53
2023/12/31 02:50:12;;;;;;;3.77;2.03;;;;;;;;;;5071440;28;20192;-53
2023/12/31 02:52:38;;;;;;;5.50;2.50;;;;;;;;;;5073043;28;20279;-53
2023/12/31 02:55:04;;;;;;;3.00;1.87;;;;;;;;;;5074814;28;20697;-54
2023/12/31 02:57:30;;;;;;;3.93;2.00;;;;;;;;;;5074910;28;20279;-52
2023/12/31 02:59:56;;;;;;;3.53;1.83;;;;;;;;;;5074707;28;20299;-52
2023/12/31 03:02:23;;;;;;;2.20;1.87;;;;;;;;;;5074566;28;20609;-52
2023/12/31 03:04:50;;;;;;;5.67;2.10;;;;;;;;;;5074666;28;20200;-53
2023/12/31 03:07:16;;;;;;;2.53;1.90;;;;;;;;;;5074631;28;20324;-52
2023/12/31 03:09:42;;;;;;;4.50;2.30;;;;;;;;;;5074726;28;20234;-52
2023/12/31 03:12:08;;;;;;;3.90;1.90;;;;;;;;;;5074451;28;20196;-53
2023/12/31 03:14:34;;;;;;;4.90;2.20;;;;;;;;;;5074558;28;20207;-52
2023/12/31 03:17:00;;;;;;;2.53;1.90;;;;;;;;;;5074469;28;20249;-52
2023/12/31 03:19:27;;;;;;;4.83;2.10;;;;;;;;;;5074456;28;20336;-53
2023/12/31 03:21:53;;;;;;;3.37;1.93;;;;;;;;;;5074297;28;20694;-52
2023/12/31 03:24:22;;;;;;;4.93;2.03;;;;;;;;;;5074412;28;20238;-54
2023/12/31 03:26:48;;;;;;;2.10;1.90;;;;;;;;;;5073621;28;20203;-53
2023/12/31 03:29:14;;;;;;;3.00;2.03;;;;;;;;;;5074215;28;20196;-53
2023/12/31 03:31:40;;;;;;;4.10;2.00;;;;;;;;;;5074227;28;20218;-53
2023/12/31 03:34:06;;;;;;;3.97;2.10;;;;;;;;;;5074035;28;20203;-53
2023/12/31 03:36:34;;;;;;;3.90;2.20;;;;;;;;;;5070616;28;20207;-53
2023/12/31 03:39:00;;;;;;;2.77;2.10;;;;;;;;;;5068949;28;20250;-52
2023/12/31 03:41:26;;;;;;;4.33;2.00;;;;;;;;;;5066900;28;20259;-53
2023/12/31 03:43:52;;;;;;;4.30;1.83;;;;;;;;;;5068298;28;20767;-53
2023/12/31 03:46:17;;;;;;;5.23;2.30;;;;;;;;;;5066153;28;20244;-53
2023/12/31 03:48:43;;;;;;;5.43;2.23;;;;;;;;;;5065271;28;20283;-53
2023/12/31 03:51:10;;;;;;;2.10;1.90;;;;;;;;;;5064777;28;20252;-53
2023/12/31 03:53:37;;;;;;;3.20;1.90;;;;;;;;;;5068376;28;20654;-53
2023/12/31 03:56:03;;;;;;;4.33;1.97;;;;;;;;;;5065071;28;20214;-53
2023/12/31 03:58:29;;;;;;;3.57;2.10;;;;;;;;;;5066677;28;20203;-53
2023/12/31 04:00:55;;;;;;;2.70;1.73;;;;;;;;;;5069428;28;20349;-53
2023/12/31 04:03:21;;;;;;;3.20;2.13;;;;;;;;;;5066451;28;20200;-52
2023/12/31 04:05:47;;;;;;;2.93;2.10;;;;;;;;;;5066698;28;20203;-53
2023/12/31 04:08:13;;;;;;;4.50;1.90;;;;;;;;;;5064731;28;20239;-53
2023/12/31 04:10:40;;;;;;;3.20;1.93;;;;;;;;;;5062756;28;20219;-53
2023/12/31 04:13:06;;;;;;;4.53;2.07;;;;;;;;;;5068058;28;20214;-53
2023/12/31 04:15:32;;;;;;;4.00;2.13;;;;;;;;;;5063981;28;20203;-53
2023/12/31 04:17:58;;;;;;;3.07;1.90;;;;;;;;;;5067298;28;20246;-53
2023/12/31 04:20:24;;;;;;;3.07;2.00;;;;;;;;;;5064445;28;20219;-53
2023/12/31 04:22:50;;;;;;;2.00;1.73;;;;;;;;;;5062526;28;20649;-52
2023/12/31 04:25:16;;;;;;;3.40;2.10;;;;;;;;;;5062063;28;20568;-53
2023/12/31 04:27:44;;;;;;;3.73;2.20;;;;;;;;;;5062470;28;20191;-52
2023/12/31 04:30:11;;;;;;;4.13;2.23;;;;;;;;;;5067478;28;20204;-52
2023/12/31 04:32:37;;;;;;;2.70;2.03;;;;;;;;;;5063960;28;20277;-53
2023/12/31 04:35:03;;;;;;;3.17;2.20;;;;;;;;;;5065682;28;20280;-53
2023/12/31 04:37:30;;;;;;;3.33;2.10;;;;;;;;;;5061905;28;20729;-53
2023/12/31 04:39:56;;;;;;;3.53;1.97;;;;;;;;;;5065032;28;20214;-53
2023/12/31 04:42:22;;;;;;;2.93;2.27;;;;;;;;;;5063372;28;20215;-53
2023/12/31 04:44:49;;;;;;;2.47;1.90;;;;;;;;;;5065851;28;20203;-53
2023/12/31 04:47:15;;;;;;;3.37;2.10;;;;;;;;;;5062283;28;20293;-53
2023/12/31 04:49:42;;;;;;;2.13;1.93;;;;;;;;;;5062047;28;20188;-52
2023/12/31 04:52:08;;;;;;;2.93;2.23;;;;;;;;;;5065498;28;20203;-53
2023/12/31 04:54:34;;;;;;;2.27;2.07;;;;;;;;;;5067226;28;20206;-52
2023/12/31 04:57:00;;;;;;;5.60;2.30;;;;;;;;;;5065477;28;20620;-53
2023/12/31 04:59:26;;;;;;;3.20;2.40;;;;;;;;;;5061864;28;20564;-53
2023/12/31 05:01:55;;;;;;;4.63;2.10;;;;;;;;;;5063557;28;20657;-53
2023/12/31 05:04:20;;;;;;;2.60;2.27;;;;;;;;;;5059692;28;20215;-53
2023/12/31 05:06:46;;;;;;;3.03;2.53;;;;;;;;;;5065534;28;20206;-53
2023/12/31 05:09:12;;;;;;;5.77;2.80;;;;;;;;;;5060154;28;20269;-53
2023/12/31 05:11:39;;;;;;;5.43;2.60;;;;;;;;;;5061858;28;20198;-53
2023/12/31 05:14:05;;;;;;;4.03;2.87;;;;;;;;;;5059834;28;20249;-53
2023/12/31 05:16:32;;;;;;;4.47;2.87;;;;;;;;;;5061768;28;20582;-53
2023/12/31 05:19:00;;;;;;;3.20;2.57;;;;;;;;;;5060079;28;20230;-53
2023/12/31 05:21:25;;;;;;;3.20;2.50;;;;;;;;;;5062688;28;20235;-53
2023/12/31 05:23:51;;;;;;;3.03;2.50;;;;;;;;;;5061640;28;20409;-52
2023/12/31 05:26:17;;;;;;;2.83;2.33;;;;;;;;;;5058205;28;20249;-52
2023/12/31 05:28:43;;;;;;;3.87;2.30;;;;;;;;;;5063371;28;20298;-53
2023/12/31 05:31:13;;;;;;;2.83;2.20;;;;;;;;;;5061230;28;20621;-53
2023/12/31 05:33:39;;;;;;;3.47;2.17;;;;;;;;;;5062053;28;20200;-53
2023/12/31 05:36:06;;;;;;;7.23;2.80;;;;;;;;;;5062993;28;20203;-53
2023/12/31 05:38:32;;;;;;;5.23;2.73;;;;;;;;;;5063430;28;20234;-53
2023/12/31 05:40:59;;;;;;;3.53;2.87;;;;;;;;;;5062798;28;20655;-53
2023/12/31 05:43:25;;;;;;;3.53;2.73;;;;;;;;;;5059627;28;20691;-52
2023/12/31 05:45:51;;;;;;;4.00;2.37;;;;;;;;;;5061079;28;20199;-53
2023/12/31 05:48:17;;;;;;;3.63;2.57;;;;;;;;;;5060340;28;20239;-53
2023/12/31 05:50:43;;;;;;;4.07;2.50;;;;;;;;;;5060989;28;20818;-53
2023/12/31 05:53:11;;;;;;;4.80;2.63;;;;;;;;;;5059457;28;20200;-53
2023/12/31 05:55:37;;;;;;;3.47;2.43;;;;;;;;;;5060989;28;20897;-53
2023/12/31 05:58:03;;;;;;;4.10;2.67;;;;;;;;;;5061204;28;20215;-52
2023/12/31 06:00:29;;;;;;;3.80;2.63;;;;;;;;;;5059760;28;20233;-53
2023/12/31 06:02:55;;;;;;;2.93;2.63;;;;;;;;;;5060652;28;20689;-53
2023/12/31 06:05:21;;;;;;;2.97;2.70;;;;;;;;;;5059358;28;20567;-53
2023/12/31 06:07:47;;;;;;;3.43;2.70;;;;;;;;;;5059462;28;20195;-53
2023/12/31 06:10:14;;;;;;;3.03;2.73;;;;;;;;;;5057607;28;20257;-53
2023/12/31 06:12:40;;;;;;;3.63;2.47;;;;;;;;;;5057715;28;20199;-53
2023/12/31 06:15:09;;;;;;;3.17;2.60;;;;;;;;;;5059329;28;20661;-53
2023/12/31 06:17:35;;;;;;;3.80;2.60;;;;;;;;;;5059319;28;20640;-53
2023/12/31 06:20:01;;;;;;;4.37;2.50;;;;;;;;;;5057484;28;20253;-53
2023/12/31 06:22:27;;;;;;;4.23;2.70;;;;;;;;;;5059332;28;20192;-53
2023/12/31 06:24:53;;;;;;;3.00;2.43;;;;;;;;;;5059006;28;20469;-53
2023/12/31 06:27:20;;;;;;;2.70;2.33;;;;;;;;;;5058994;28;20195;-53
2023/12/31 06:29:46;;;;;;;2.80;2.43;;;;;;;;;;5057635;28;20204;-53
2023/12/31 06:32:12;;;;;;;3.30;2.40;;;;;;;;;;5057408;28;20559;-53
2023/12/31 06:34:38;;;;;;;6.17;2.43;;;;;;;;;;5060226;28;20196;-53
2023/12/31 06:37:04;;;;;;;3.53;2.33;;;;;;;;;;5058834;28;20203;-54
2023/12/31 06:39:30;;;;;;;3.17;2.10;;;;;;;;;;5059039;28;20208;-52
2023/12/31 06:41:56;;;;;;;4.20;2.70;;;;;;;;;;5058778;28;20230;-52
2023/12/31 06:44:23;;;;;;;4.43;2.30;;;;;;;;;;5059013;28;20200;-52
2023/12/31 06:46:49;;;;;;;2.40;2.20;;;;;;;;;;5057302;28;20231;-52
2023/12/31 06:49:15;;;;;;;3.17;2.30;;;;;;;;;;5056976;28;20195;-52
2023/12/31 06:51:41;;;;;;;3.53;2.20;;;;;;;;;;5059098;28;20611;-52
2023/12/31 06:54:08;;;;;;;2.40;2.20;;;;;;;;;;5060260;28;20696;-53
2023/12/31 06:56:33;;;;;;;3.67;2.17;;;;;;;;;;5058863;28;20184;-53
2023/12/31 06:59:00;;;;;;;1.97;1.83;;;;;;;;;;5059185;28;20208;-53
2023/12/31 07:01:28;;;;;;;3.30;2.30;;;;;;;;;;5060501;28;20304;-53
2023/12/31 07:03:54;;;;;;;2.37;2.00;;;;;;;;;;5060618;28;20279;-53
2023/12/31 07:06:20;;;;;;;2.20;2.00;;;;;;;;;;5065303;28;20561;-53
2023/12/31 07:08:46;;;;;;;3.67;2.13;;;;;;;;;;5062521;28;20203;-53
2023/12/31 07:11:14;;;;;;;3.13;2.23;;;;;;;;;;5062190;28;20206;-53
2023/12/31 07:13:40;;;;;;;2.97;2.10;;;;;;;;;;5062287;28;20752;-53
2023/12/31 07:16:06;;;;;;;2.40;1.97;;;;;;;;;;5058193;28;20556;-53
2023/12/31 07:18:35;;;;;;;3.77;2.00;;;;;;;;;;5044221;28;20283;-53
2023/12/31 07:21:01;;;;;;;3.53;2.47;;;;;;;;;;5044931;28;20717;-53
2023/12/31 07:23:27;;;;;;;2.30;2.00;;;;;;;;;;5041903;28;20678;-51
2023/12/31 07:25:53;;;;;;;2.53;1.93;;;;;;;;;;5042179;28;20230;-52
2023/12/31 07:28:19;;;;;;;2.00;1.90;;;;;;;;;;5041800;28;20303;-53
2023/12/31 07:30:46;;;;;;;2.70;1.70;;;;;;;;;;5043178;28;20222;-51
2023/12/31 07:33:12;;;;;;;3.27;1.80;;;;;;;;;;5042534;28;20204;-53
2023/12/31 07:35:41;;;;;;;2.13;1.70;;;;;;;;;;5043164;28;20199;-52
2023/12/31 07:38:08;;;;;;;3.50;2.20;;;;;;;;;;5041959;28;20232;-53
2023/12/31 07:40:34;;;;;;;2.57;1.80;;;;;;;;;;5041713;28;20258;-53
2023/12/31 07:43:00;;;;;;;1.90;1.60;;;;;;;;;;5041696;28;20200;-53
2023/12/31 07:45:26;;;;;;;2.37;2.00;;;;;;;;;;5042822;28;20300;-53
2023/12/31 07:47:53;;;;;;;2.70;1.80;;;;;;;;;;5040847;28;20248;-52
2023/12/31 07:50:19;;;;;;;4.83;1.80;;;;;;;;;;5041452;28;20197;-54
2023/12/31 07:52:46;;;;;;;3.67;1.80;;;;;;;;;;5041861;28;20246;-52
2023/12/31 07:55:13;;;;;;;1.70;1.60;;;;;;;;;;5044920;28;20196;-53
2023/12/31 07:57:39;;;;;;;3.00;1.47;;;;;;;;;;5042847;28;20565;-53
2023/12/31 08:00:06;;;;;;;2.13;1.50;;;;;;;;;;5042692;28;20231;-52
2023/12/31 08:02:32;;;;;;;1.87;1.60;;;;;;;;;;5040591;28;20235;-52
2023/12/31 08:04:58;;;;;;;3.33;1.70;;;;;;;;;;5041480;28;20238;-52
2023/12/31 08:07:24;;;;;;;1.77;1.60;;;;;;;;;;5042394;28;20192;-53
2023/12/31 08:09:51;;;;;;;4.60;1.67;;;;;;;;;;5039530;28;20258;-51
2023/12/31 08:12:17;;;;;;;2.03;1.60;;;;;;;;;;5040784;28;20196;-52
2023/12/31 08:14:43;;;;;;;4.20;1.90;;;;;;;;;;5041343;28;20200;-55
2023/12/31 08:17:09;;;;;;;1.60;1.50;;;;;;;;;;5040703;28;20216;-52
2023/12/31 08:19:35;;;;;;;2.00;1.67;;;;;;;;;;5041091;28;20711;-52
2023/12/31 08:22:01;;;;;;;3.50;1.70;;;;;;;;;;5040530;28;20599;-54
2023/12/31 08:24:27;;;;;;;2.00;1.70;;;;;;;;;;5042340;28;20319;-53
2023/12/31 08:26:55;;;;;;;1.73;1.60;;;;;;;;;;5040906;28;20296;-54
2023/12/31 08:29:21;;;;;;;3.40;1.70;;;;;;;;;;5042389;28;20207;-57
2023/12/31 08:31:52;;;;;;;2.27;1.70;;;;;;;;;;5041772;28;20283;-54
2023/12/31 08:34:18;;;;;;;1.73;1.60;;;;;;;;;;5042548;28;20202;-54
2023/12/31 08:36:44;;;;;;;2.10;1.60;;;;;;;;;;5042578;28;20619;-53
2023/12/31 08:39:10;;;;;;;3.33;1.70;;;;;;;;;;5040630;28;20200;-53
2023/12/31 08:41:36;;;;;;;2.63;1.80;;;;;;;;;;5040325;28;20259;-51
2023/12/31 08:44:04;;;;;;;2.77;2.00;;;;;;;;;;5042345;28;20216;-51
2023/12/31 08:46:30;;;;;;;2.43;1.43;;;;;;;;;;5043375;28;20247;-50
2023/12/31 08:48:56;;;;;;;2.10;1.57;;;;;;;;;;5040654;28;20206;-51
2023/12/31 08:51:22;;;;;;;1.93;1.50;;;;;;;;;;5039931;28;20295;-50
2023/12/31 08:53:48;;;;;;;2.07;1.60;;;;;;;;;;5040490;28;20287;-47
2023/12/31 08:56:14;;;;;;;1.63;1.53;;;;;;;;;;5042016;28;20694;-50
2023/12/31 08:58:40;;;;;;;2.10;1.80;;;;;;;;;;5041913;28;20299;-50
2023/12/31 09:01:08;;;;;;;2.37;1.80;;;;;;;;;;5043657;28;20228;-50
2023/12/31 09:03:34;;;;;;;2.40;2.00;;;;;;;;;;5041933;28;20698;-49
2023/12/31 09:06:00;;;;;;;3.20;1.77;;;;;;;;;;5041424;28;20279;-50
2023/12/31 09:08:29;;;;;;;2.50;1.77;;;;;;;;;;5041921;28;20677;-50
2023/12/31 09:10:55;;;;;;;2.10;1.70;;;;;;;;;;5045349;28;20184;-50
2023/12/31 09:13:26;;;;;;;1.60;1.50;;;;;;;;;;5041217;28;20199;-50
2023/12/31 09:15:55;;;;;;;3.03;1.70;;;;;;;;;;5041870;28;20312;-50
2023/12/31 09:18:23;;;;;;;3.40;1.80;;;;;;;;;;5039496;28;20258;-50
2023/12/31 09:20:49;;;;;;;1.80;1.60;;;;;;;;;;5041452;28;20451;-50
2023/12/31 09:23:17;;;;;;;3.20;1.80;;;;;;;;;;5041717;28;20654;-50
2023/12/31 09:25:44;;;;;;;2.90;1.90;;;;;;;;;;5041291;28;20222;-49
2023/12/31 09:28:10;;;;;;;2.33;1.60;;;;;;;;;;5039652;28;20222;-50
2023/12/31 09:30:36;;;;;;;1.90;1.70;;;;;;;;;;5039566;28;20195;-50
2023/12/31 09:33:02;;;;;;;1.73;1.50;;;;;;;;;;5041225;28;21119;-51
2023/12/31 09:35:30;;;;;;;1.77;1.67;;;;;;;;;;5041233;28;20200;-50
2023/12/31 09:37:56;;;;;;;1.60;1.50;;;;;;;;;;5041197;28;20596;-50
2023/12/31 09:40:22;;;;;;;4.10;1.70;;;;;;;;;;5039580;28;20254;-51
2023/12/31 09:42:49;;;;;;;2.43;1.60;;;;;;;;;;5037707;28;20204;-50
2023/12/31 09:45:16;;;;;;;2.93;1.70;;;;;;;;;;5043062;28;20207;-50
2023/12/31 09:47:43;;;;;;;1.80;1.60;;;;;;;;;;5039286;28;20768;-50
2023/12/31 09:50:10;;;;;;;3.30;1.70;;;;;;;;;;5040706;28;20370;-50
2023/12/31 09:52:37;;;;;;;2.33;1.70;;;;;;;;;;5040611;28;20291;-48
2023/12/31 09:55:04;;;;;;;1.70;1.60;;;;;;;;;;5039335;28;20219;-50
2023/12/31 09:57:34;;;;;;;2.20;1.60;;;;;;;;;;5039978;28;20199;-50
2023/12/31 10:00:04;;;;;;;3.60;1.93;;;;;;;;;;5040611;28;20242;-50
2023/12/31 10:02:30;;;;;;;1.70;1.60;;;;;;;;;;5038651;28;20227;-49
2023/12/31 10:04:56;;;;;;;1.70;1.60;;;;;;;;;;5040520;28;20635;-49
2023/12/31 10:07:23;;;;;;;2.37;1.87;;;;;;;;;;5039016;28;20756;-49
2023/12/31 10:09:50;;;;;;;2.10;1.90;;;;;;;;;;5037720;28;20200;-49
2023/12/31 10:12:17;;;;;;;1.40;1.30;;;;;;;;;;5038992;28;20196;-49
2023/12/31 10:14:43;;;;;;;1.70;1.60;;;;;;;;;;5040545;28;20196;-50
2023/12/31 10:17:10;;;;;;;1.60;1.50;;;;;;;;;;5039100;28;20220;-50
2023/12/31 10:19:36;;;;;;;3.10;1.50;;;;;;;;;;5044414;28;20271;-50
2023/12/31 10:22:05;;;;;;;1.97;1.60;;;;;;;;;;5040793;28;20655;-50
2023/12/31 10:24:31;;;;;;;2.47;1.53;;;;;;;;;;5042270;28;20200;-49
2023/12/31 10:27:02;;;;;;;2.60;1.60;;;;;;;;;;5039278;28;20200;-50
2023/12/31 10:29:28;;;;;;;2.03;1.60;;;;;;;;;;5040762;28;20230;-51
2023/12/31 10:31:54;;;;;;;1.57;1.40;;;;;;;;;;5037035;28;20283;-51
2023/12/31 10:34:20;;;;;;;3.57;2.30;;;;;;;;;;5042386;28;20196;-50
2023/12/31 10:36:47;;;;;;;3.63;1.80;;;;;;;;;;5041704;28;20194;-50
2023/12/31 10:39:26;;;;;;;1.63;1.53;;;;;;;;;;5044675;28;20196;-50
2023/12/31 10:41:54;;;;;;;1.40;1.30;;;;;;;;;;5044451;28;20719;-50
2023/12/31 10:44:22;;;;;;;2.20;1.60;;;;;;;;;;5045967;28;20200;-50
2023/12/31 10:46:49;;;;;;;2.77;1.50;;;;;;;;;;5045954;28;20628;-50
2023/12/31 10:49:16;;;;;;;1.87;1.60;;;;;;;;;;5047922;28;20239;-50
2023/12/31 10:51:44;;;;;;;2.23;2.03;;;;;;;;;;5044367;28;20199;-49
2023/12/31 10:54:13;;;;;;;1.70;1.60;;;;;;;;;;5042584;28;20204;-49
2023/12/31 10:56:40;;;;;;;2.20;1.73;;;;;;;;;;5042601;28;20200;-50
2023/12/31 10:59:07;;;;;;;1.90;1.80;;;;;;;;;;5042477;28;20802;-50
2023/12/31 11:01:35;;;;;;;1.70;1.57;;;;;;;;;;5047623;28;20605;-50
2023/12/31 11:04:01;;;;;;;1.97;1.73;;;;;;;;;;5044892;28;20215;-51
2023/12/31 11:06:28;;;;;;;1.70;1.60;;;;;;;;;;5044321;28;20223;-50
2023/12/31 11:08:54;;;;;;;2.27;1.80;;;;;;;;;;5042536;28;20204;-49
2023/12/31 11:11:20;;;;;;;1.80;1.70;;;;;;;;;;5044096;28;20204;-51
2023/12/31 11:13:49;;;;;;;2.47;1.80;;;;;;;;;;5045929;28;20200;-50
2023/12/31 11:16:20;;;;;;;2.37;2.00;;;;;;;;;;5045143;28;20196;-49
2023/12/31 11:19:01;;;;;;;2.63;1.90;;;;;;;;;;5042114;28;20196;-49
2023/12/31 11:21:36;;;;;;;1.90;1.70;;;;;;;;;;5046755;28;20611;-49
2023/12/31 11:24:10;;;;;;;2.10;1.80;;;;;;;;;;5045573;28;20670;-49
2023/12/31 11:26:38;;;;;;;2.53;2.00;;;;;;;;;;5043345;28;20205;-50
2023/12/31 11:29:09;;;;;;;2.00;1.80;;;;;;;;;;5040825;28;20226;-50
2023/12/31 11:31:39;;;;;;;2.27;2.07;;;;;;;;;;5040933;28;20203;-50
2023/12/31 11:34:05;;;;;;;1.97;1.80;;;;;;;;;;5045276;28;20214;-50
2023/12/31 11:36:32;;;;;;;2.17;1.97;;;;;;;;;;5043808;28;20772;-50
2023/12/31 11:38:59;;;;;;;2.00;1.80;;;;;;;;;;5041521;28;20197;-50
2023/12/31 11:41:26;;;;;;;3.10;1.90;;;;;;;;;;5043116;28;20319;-50
2023/12/31 11:43:52;;;;;;;2.77;2.20;;;;;;;;;;5039982;28;20265;-50
2023/12/31 11:46:32;;;;;;;3.60;1.90;;;;;;;;;;5044597;28;20263;-50
2023/12/31 11:48:58;;;;;;;2.43;1.80;;;;;;;;;;5042940;28;20275;-47
2023/12/31 11:51:24;;;;;;;2.53;2.10;;;;;;;;;;5041697;28;20250;-49
2023/12/31 11:53:53;;;;;;;3.70;2.03;;;;;;;;;;5046534;28;20677;-49
2023/12/31 11:56:19;;;;;;;4.33;2.00;;;;;;;;;;5041288;28;20658;-48
2023/12/31 11:58:46;;;;;;;2.27;1.70;;;;;;;;;;5044612;28;20226;-47
2023/12/31 12:01:12;;;;;;;2.40;2.20;;;;;;;;;;5041440;28;20235;-48
2023/12/31 12:03:38;;;;;;;2.73;1.97;;;;;;;;;;5041318;28;20196;-48
2023/12/31 12:06:05;;;;;;;2.30;2.10;;;;;;;;;;5041439;28;20291;-49
2023/12/31 12:08:32;;;;;;;2.20;2.00;;;;;;;;;;5044803;28;20378;-49
2023/12/31 12:11:02;;;;;;;1.90;1.80;;;;;;;;;;5041059;28;20184;-48
2023/12/31 12:13:28;;;;;;;2.30;2.03;;;;;;;;;;5042963;28;20271;-48
2023/12/31 12:15:54;;;;;;;3.20;2.10;;;;;;;;;;5043010;28;20228;-49
2023/12/31 12:18:26;;;;;;;2.57;1.80;;;;;;;;;;5042724;28;20346;-50
2023/12/31 12:20:52;;;;;;;3.80;2.13;;;;;;;;;;5044335;28;20224;-49
2023/12/31 12:23:19;;;;;;;2.10;1.90;;;;;;;;;;5041976;28;20288;-50
2023/12/31 12:25:45;;;;;;;2.10;1.90;;;;;;;;;;5039618;28;20208;-50
2023/12/31 12:28:13;;;;;;;2.33;2.10;;;;;;;;;;5040230;28;20235;-49
2023/12/31 12:30:41;;;;;;;2.70;2.00;;;;;;;;;;5041615;28;20291;-50
2023/12/31 12:33:07;;;;;;;3.03;2.20;;;;;;;;;;5041790;28;20207;-49
2023/12/31 12:35:33;;;;;;;2.70;2.17;;;;;;;;;;5041891;28;20207;-50
2023/12/31 12:37:59;;;;;;;2.43;2.23;;;;;;;;;;5040832;28;20204;-50
2023/12/31 12:40:25;;;;;;;2.27;2.07;;;;;;;;;;5040275;28;20196;-50
2023/12/31 12:42:53;;;;;;;2.53;2.20;;;;;;;;;;5044044;28;20200;-50
2023/12/31 12:45:23;;;;;;;2.00;1.90;;;;;;;;;;5040147;28;20211;-49
2023/12/31 12:47:49;;;;;;;2.20;2.00;;;;;;;;;;5038555;28;20240;-50
2023/12/31 12:50:15;;;;;;;2.17;1.87;;;;;;;;;;5040345;28;20290;-49
2023/12/31 12:52:41;;;;;;;2.23;2.03;;;;;;;;;;5041950;28;20279;-49
2023/12/31 12:55:08;;;;;;;2.37;2.03;;;;;;;;;;5041850;28;20761;-49
2023/12/31 12:57:35;;;;;;;2.27;2.07;;;;;;;;;;5042610;28;20826;-49
2023/12/31 13:00:01;;;;;;;2.10;1.90;;;;;;;;;;5041210;28;20196;-49
2023/12/31 13:02:29;;;;;;;2.63;2.17;;;;;;;;;;5041784;28;20635;-48
2023/12/31 13:04:56;;;;;;;2.07;1.87;;;;;;;;;;5040045;28;20682;-49
2023/12/31 13:07:22;;;;;;;3.00;2.10;;;;;;;;;;5041941;28;20291;-48
2023/12/31 13:09:48;;;;;;;2.30;2.10;;;;;;;;;;5041688;28;20718;-49
2023/12/31 13:12:14;;;;;;;2.40;2.20;;;;;;;;;;5040140;28;20196;-48
2023/12/31 13:14:40;;;;;;;3.20;1.87;;;;;;;;;;5040298;28;20211;-49
2023/12/31 13:17:06;;;;;;;2.20;1.90;;;;;;;;;;5039278;28;20311;-49
2023/12/31 13:19:33;;;;;;;2.37;2.17;;;;;;;;;;5039543;28;20204;-49
2023/12/31 13:22:00;;;;;;;2.67;2.20;;;;;;;;;;5041360;28;20239;-49
2023/12/31 13:24:26;;;;;;;2.07;1.87;;;;;;;;;;5039880;28;20208;-49
2023/12/31 13:26:53;;;;;;;3.10;2.07;;;;;;;;;;5044803;28;20650;-49
2023/12/31 13:29:19;;;;;;;2.33;2.13;;;;;;;;;;5042258;28;20197;-49
2023/12/31 13:31:45;;;;;;;2.47;2.10;;;;;;;;;;5042209;28;20207;-49
2023/12/31 13:34:11;;;;;;;2.63;1.90;;;;;;;;;;5043095;28;20201;-49
2023/12/31 13:36:38;;;;;;;2.17;1.97;;;;;;;;;;5044367;28;20196;-49
2023/12/31 13:39:04;;;;;;;1.83;1.73;;;;;;;;;;5044719;28;20200;-49
2023/12/31 13:41:30;;;;;;;4.00;3.17;;;;;;;;;;5042369;28;20598;-49
2023/12/31 13:43:56;;;;;;;2.60;2.20;;;;;;;;;;5042816;28;20200;-49
2023/12/31 13:46:22;;;;;;;3.33;3.03;;;;;;;;;;5039107;28;20227;-50
2023/12/31 13:48:48;;;;;;;3.50;2.33;;;;;;;;;;5041043;28;20752;-49
2023/12/31 13:51:14;;;;;;;2.40;2.20;;;;;;;;;;5042654;28;20219;-48
2023/12/31 13:53:42;;;;;;;2.70;2.03;;;;;;;;;;5042431;28;20203;-49
2023/12/31 13:56:08;;;;;;;3.03;2.00;;;;;;;;;;5040900;28;20226;-49
2023/12/31 13:58:34;;;;;;;2.60;2.00;;;;;;;;;;5040922;28;20200;-49
2023/12/31 14:01:00;;;;;;;2.80;2.00;;;;;;;;;;5050907;28;20226;-49
2023/12/31 14:03:26;;;;;;;2.17;1.97;;;;;;;;;;5051239;28;20722;-50
2023/12/31 14:05:52;;;;;;;2.60;1.93;;;;;;;;;;5051204;28;20196;-49
2023/12/31 14:08:18;;;;;;;2.93;2.03;;;;;;;;;;5049210;28;20188;-50
2023/12/31 14:10:45;;;;;;;2.20;2.00;;;;;;;;;;5052224;28;20274;-50
2023/12/31 14:13:11;;;;;;;3.27;2.00;;;;;;;;;;5055680;28;20200;-49
2023/12/31 14:15:37;;;;;;;2.40;2.20;;;;;;;;;;5056212;28;20200;-50
2023/12/31 14:18:04;;;;;;;2.87;2.57;;;;;;;;;;5075323;28;20276;-49
2023/12/31 14:20:30;;;;;;;2.57;1.87;;;;;;;;;;5075311;28;20195;-50
2023/12/31 14:22:56;;;;;;;2.37;1.90;;;;;;;;;;5055265;28;20571;-49
2023/12/31 14:25:23;;;;;;;2.57;1.93;;;;;;;;;;5055059;28;20196;-49
2023/12/31 14:27:50;;;;;;;2.33;1.90;;;;;;;;;;5054737;28;20564;-50
2023/12/31 14:30:17;;;;;;;2.40;2.17;;;;;;;;;;5055184;28;20292;-49
2023/12/31 14:32:43;;;;;;;2.20;1.90;;;;;;;;;;5054927;28;20200;-50
2023/12/31 14:35:09;;;;;;;2.70;2.07;;;;;;;;;;5054659;28;20667;-49
2023/12/31 14:37:35;;;;;;;2.27;1.90;;;;;;;;;;5054743;28;20224;-50
2023/12/31 14:40:02;;;;;;;3.00;1.90;;;;;;;;;;5055030;28;20243;-49